Time;durP1;ratioP1;P1;durP2;ratioP2;P2;SDS_P1;SDS_P2;PMS_P1;PMS_P2;Temp;Humidity;BMP_temperature;BMP_pressure;BME280_temperature;BME280_humidity;BME280_pressure;Samples;Min_cycle;Max_cycle;Signal;HPM_P1;HPM_P2
2023/08/26 00:01:09;;;;;;;13.15;9.48;;;;;;;19.29;98.46;100451.91;5013477;28;20034;-61
2023/08/26 00:03:34;;;;;;;15.63;9.60;;;;;;;19.28;98.38;100451.06;5002895;28;20798;-61
2023/08/26 00:06:00;;;;;;;12.68;8.57;;;;;;;19.25;98.78;100450.38;5008732;28;20041;-61
2023/08/26 00:08:25;;;;;;;14.98;8.48;;;;;;;19.20;99.03;100452.38;5016361;28;20057;-61
2023/08/26 00:10:51;;;;;;;11.55;8.95;;;;;;;19.16;99.33;100456.06;5019996;28;20502;-61
2023/08/26 00:13:16;;;;;;;16.13;9.75;;;;;;;19.11;99.65;100464.16;5015889;28;20092;-60
2023/08/26 00:15:42;;;;;;;13.07;8.80;;;;;;;19.11;99.28;100460.69;5011340;28;20456;-61
2023/08/26 00:18:08;;;;;;;13.70;8.95;;;;;;;19.10;99.00;100466.81;5014552;28;20029;-61
2023/08/26 00:20:34;;;;;;;12.93;9.15;;;;;;;19.08;98.44;100459.06;5015798;28;20054;-61
2023/08/26 00:23:00;;;;;;;14.45;8.30;;;;;;;19.05;98.55;100453.97;5015935;28;20041;-61
2023/08/26 00:25:25;;;;;;;15.00;8.85;;;;;;;19.03;98.79;100461.03;5017653;28;20077;-61
2023/08/26 00:27:50;;;;;;;12.05;9.10;;;;;;;19.03;98.56;100464.50;5022856;28;20061;-61
2023/08/26 00:30:16;;;;;;;13.18;8.57;;;;;;;19.05;98.10;100472.31;5019526;28;20402;-62
2023/08/26 00:32:41;;;;;;;17.80;9.02;;;;;;;19.08;97.63;100477.41;5008859;28;20042;-61
2023/08/26 00:35:06;;;;;;;11.82;8.82;;;;;;;19.12;97.46;100483.34;5014873;28;20082;-61
2023/08/26 00:37:32;;;;;;;13.32;8.90;;;;;;;19.12;97.74;100476.31;5005772;28;20041;-61
2023/08/26 00:39:57;;;;;;;14.13;8.38;;;;;;;19.14;97.47;100478.88;5013087;28;20402;-61
2023/08/26 00:42:22;;;;;;;14.48;8.75;;;;;;;19.14;97.30;100484.09;5012100;28;20058;-61
2023/08/26 00:44:48;;;;;;;13.05;7.85;;;;;;;19.11;94.95;100479.00;5011713;28;20034;-61
2023/08/26 00:47:13;;;;;;;9.70;7.07;;;;;;;19.10;92.54;100486.03;5008541;28;20046;-61
2023/08/26 00:49:39;;;;;;;12.15;6.22;;;;;;;19.07;89.51;100478.31;5011985;28;20706;-61
2023/08/26 00:52:05;;;;;;;7.65;4.80;;;;;;;19.07;88.53;100486.16;5012617;28;20038;-61
2023/08/26 00:54:35;;;;;;;9.10;4.82;;;;;;;19.05;87.14;100481.00;5011984;28;20668;-61
2023/08/26 00:57:02;;;;;;;6.72;4.32;;;;;;;19.05;85.65;100483.63;5019203;28;20034;-62
2023/08/26 00:59:28;;;;;;;5.88;3.95;;;;;;;19.04;85.72;100481.94;5014626;28;20069;-61
2023/08/26 01:01:54;;;;;;;7.60;3.80;;;;;;;19.01;83.76;100474.22;5020291;28;20069;-61
2023/08/26 01:04:20;;;;;;;8.15;3.97;;;;;;;18.99;81.09;100476.06;5025201;28;20215;-61
2023/08/26 01:06:45;;;;;;;6.63;3.33;;;;;;;18.99;82.32;100485.69;5008411;28;20480;-61
2023/08/26 01:09:11;;;;;;;7.53;3.65;;;;;;;18.95;79.88;100473.66;5012725;28;20036;-61
2023/08/26 01:12:05;;;;;;;5.10;2.80;;;;;;;18.95;80.03;100481.50;5010851;28;20053;-61
2023/08/26 01:14:40;;;;;;;5.90;2.85;;;;;;;18.92;78.02;100479.03;5017969;28;20053;-61
2023/08/26 01:17:07;;;;;;;4.47;2.83;;;;;;;18.90;79.46;100492.22;5014502;28;20038;-61
2023/08/26 01:19:44;;;;;;;7.28;3.05;;;;;;;18.86;77.93;100477.56;5003993;28;20046;-62
2023/08/26 01:22:10;;;;;;;5.90;2.72;;;;;;;18.84;79.22;100491.59;5017404;28;20029;-61
2023/08/26 01:24:37;;;;;;;5.97;3.00;;;;;;;18.79;80.03;100493.59;5011579;28;20554;-61
2023/08/26 01:27:03;;;;;;;5.93;2.60;;;;;;;18.77;79.09;100483.19;5003889;28;20029;-61
2023/08/26 01:29:29;;;;;;;4.78;2.72;;;;;;;18.74;78.48;100487.69;5013442;28;20045;-61
2023/08/26 01:32:35;;;;;;;4.28;2.60;;;;;;;18.70;77.96;100479.13;5015558;28;20081;-61
2023/08/26 01:35:04;;;;;;;6.68;2.85;;;;;;;18.70;75.84;100462.59;5015642;28;20570;-60
2023/08/26 01:37:30;;;;;;;5.07;2.17;;;;;;;18.71;75.26;100465.13;5005890;28;20045;-61
2023/08/26 01:39:58;;;;;;;4.55;2.13;;;;;;;18.69;76.45;100477.47;5015455;28;20472;-61
2023/08/26 01:42:25;;;;;;;2.80;2.30;;;;;;;18.66;75.64;100461.03;5014221;28;20042;-60
2023/08/26 01:44:51;;;;;;;3.97;2.50;;;;;;;18.64;75.65;100471.56;5017125;28;20010;-61
2023/08/26 01:47:17;;;;;;;6.47;2.67;;;;;;;18.61;75.92;100478.72;5018801;28;20087;-60
2023/08/26 01:49:43;;;;;;;4.47;2.10;;;;;;;18.59;75.30;100472.69;5023902;28;20073;-61
2023/08/26 01:52:10;;;;;;;3.50;1.98;;;;;;;18.58;75.22;100481.50;5002506;28;20045;-61
2023/08/26 01:54:35;;;;;;;2.78;2.03;;;;;;;18.56;74.06;100468.47;5013245;28;20060;-61
2023/08/26 01:57:00;;;;;;;7.05;2.47;;;;;;;18.52;75.02;100480.00;5011857;28;20057;-61
2023/08/26 01:59:26;;;;;;;6.47;2.22;;;;;;;18.48;75.93;100491.53;5011601;28;20132;-61
2023/08/26 02:01:51;;;;;;;5.03;2.95;;;;;;;18.39;76.71;100511.09;5013591;28;20099;-61
2023/08/26 02:04:17;;;;;;;3.83;2.50;;;;;;;18.29;77.26;100525.50;5010257;28;20045;-61
2023/08/26 02:06:42;;;;;;;5.80;2.88;;;;;;;18.16;77.91;100526.97;5011029;28;20037;-61
2023/08/26 02:09:08;;;;;;;4.93;2.75;;;;;;;18.02;78.45;100533.72;5015888;28;20033;-60
2023/08/26 02:11:33;;;;;;;5.82;2.58;;;;;;;17.90;79.27;100532.44;5017169;28;20049;-61
2023/08/26 02:13:58;;;;;;;7.68;3.15;;;;;;;17.79;79.40;100534.63;5009663;28;20041;-61
2023/08/26 02:16:24;;;;;;;3.97;2.75;;;;;;;17.70;79.52;100548.91;5019769;28;20103;-60
2023/08/26 02:18:49;;;;;;;7.03;3.28;;;;;;;17.60;79.13;100538.91;5014376;28;20041;-61
2023/08/26 02:21:15;;;;;;;3.45;2.63;;;;;;;17.50;79.58;100541.03;5013313;28;20026;-61
2023/08/26 02:23:40;;;;;;;4.68;2.53;;;;;;;17.40;79.59;100543.16;5012933;28;20475;-61
2023/08/26 02:26:05;;;;;;;7.10;2.40;;;;;;;17.30;78.91;100541.84;5009605;28;20037;-61
2023/08/26 02:28:31;;;;;;;6.55;2.83;;;;;;;17.23;78.73;100547.34;5022685;28;20134;-61
2023/08/26 02:30:56;;;;;;;3.92;2.70;;;;;;;17.15;79.38;100546.81;5017175;28;20124;-61
2023/08/26 02:33:24;;;;;;;3.88;2.67;;;;;;;17.05;78.27;100541.09;5012039;28;20084;-61
2023/08/26 02:35:49;;;;;;;5.45;3.10;;;;;;;16.99;78.37;100551.75;5021909;28;20052;-61
2023/08/26 02:38:15;;;;;;;5.18;2.35;;;;;;;16.92;78.67;100555.50;5025341;28;20124;-60
2023/08/26 02:40:40;;;;;;;7.97;2.78;;;;;;;16.85;77.90;100554.91;5012572;28;20045;-60
2023/08/26 02:43:05;;;;;;;6.38;3.00;;;;;;;16.79;78.60;100567.34;5018307;28;20120;-60
2023/08/26 02:45:31;;;;;;;4.00;2.50;;;;;;;16.73;78.03;100564.91;5018489;28;20124;-60
2023/08/26 02:47:57;;;;;;;4.45;2.20;;;;;;;16.66;78.45;100577.31;5011762;28;20082;-61
2023/08/26 02:50:24;;;;;;;6.40;2.72;;;;;;;16.57;78.99;100589.84;5005400;28;20037;-62
2023/08/26 02:52:49;;;;;;;6.13;2.70;;;;;;;16.52;78.83;100582.19;5025472;28;20038;-60
2023/08/26 02:55:15;;;;;;;5.57;2.38;;;;;;;16.44;79.31;100586.84;5018071;28;20041;-60
2023/08/26 02:57:40;;;;;;;3.28;2.40;;;;;;;16.38;79.01;100586.19;5030742;28;20429;-60
2023/08/26 03:00:06;;;;;;;5.22;2.33;;;;;;;16.32;79.02;100575.03;5013017;28;20371;-60
2023/08/26 03:02:32;;;;;;;3.38;2.03;;;;;;;16.26;79.84;100592.69;5015170;28;20045;-60
2023/08/26 03:04:57;;;;;;;7.25;2.58;;;;;;;16.20;80.75;100598.13;5008070;28;20061;-60
2023/08/26 03:07:22;;;;;;;6.10;2.33;;;;;;;16.16;80.81;100601.72;5008548;28;20050;-60
2023/08/26 03:09:48;;;;;;;3.58;2.40;;;;;;;16.12;81.06;100600.09;5013847;28;20046;-60
2023/08/26 03:12:13;;;;;;;5.30;2.47;;;;;;;16.08;80.78;100591.56;5015601;28;20035;-60
2023/08/26 03:14:38;;;;;;;4.90;2.60;;;;;;;16.02;81.13;100594.38;5020686;28;20549;-60
2023/08/26 03:17:04;;;;;;;6.97;2.42;;;;;;;15.97;81.27;100595.44;5016510;28;20033;-60
2023/08/26 03:19:29;;;;;;;4.35;2.17;;;;;;;15.93;82.38;100597.28;5028965;28;20127;-60
2023/08/26 03:21:55;;;;;;;4.75;2.13;;;;;;;15.86;82.73;100598.38;5024069;28;20175;-60
2023/08/26 03:24:20;;;;;;;6.53;2.42;;;;;;;15.81;82.88;100595.06;5014896;28;20876;-60
2023/08/26 03:26:45;;;;;;;6.13;2.85;;;;;;;15.75;84.76;100609.16;5012668;28;20037;-60
2023/08/26 03:29:11;;;;;;;6.20;2.70;;;;;;;15.71;84.55;100607.53;5014590;28;20080;-61
2023/08/26 03:31:36;;;;;;;5.30;2.85;;;;;;;15.67;85.58;100608.53;5018045;28;20680;-60
2023/08/26 03:34:02;;;;;;;3.42;2.33;;;;;;;15.63;85.33;100606.94;5019970;28;20037;-60
2023/08/26 03:36:27;;;;;;;4.80;2.80;;;;;;;15.62;85.29;100605.22;5014554;28;20029;-61
2023/08/26 03:38:53;;;;;;;8.48;2.75;;;;;;;15.60;85.38;100599.19;5011499;28;20109;-60
2023/08/26 03:41:18;;;;;;;6.72;2.20;;;;;;;15.59;84.74;100602.69;5014955;28;20042;-61
2023/08/26 03:43:43;;;;;;;3.67;2.35;;;;;;;15.55;84.93;100606.28;5020204;28;20116;-60
2023/08/26 03:46:09;;;;;;;8.32;2.58;;;;;;;15.54;84.91;100608.94;5009997;28;20037;-60
2023/08/26 03:48:34;;;;;;;5.97;2.53;;;;;;;15.50;85.08;100615.13;5017962;28;20163;-60
2023/08/26 03:50:59;;;;;;;4.97;2.20;;;;;;;15.46;84.78;100623.97;5014184;28;20033;-61
2023/08/26 03:53:25;;;;;;;3.67;2.38;;;;;;;15.41;84.99;100634.50;5015061;28;20561;-60
2023/08/26 03:55:50;;;;;;;3.28;1.70;;;;;;;15.37;83.20;100622.50;5012706;28;20510;-60
2023/08/26 03:58:16;;;;;;;4.18;1.83;;;;;;;15.37;83.22;100629.44;5014639;28;20167;-61
2023/08/26 04:00:41;;;;;;;2.90;1.60;;;;;;;15.32;83.74;100636.53;5015015;28;20114;-61
2023/08/26 04:03:07;;;;;;;2.85;1.90;;;;;;;15.26;84.52;100636.69;5019432;28;20846;-61
2023/08/26 04:05:33;;;;;;;5.55;2.00;;;;;;;15.21;84.73;100640.31;5007195;28;20111;-60
2023/08/26 04:08:02;;;;;;;2.45;1.70;;;;;;;15.16;85.36;100638.75;5017725;28;20494;-60
2023/08/26 04:10:28;;;;;;;3.42;1.63;;;;;;;15.10;85.00;100633.72;5011933;28;20776;-60
2023/08/26 04:12:53;;;;;;;3.33;1.50;;;;;;;15.09;84.90;100640.66;5013231;28;20038;-61
2023/08/26 04:15:18;;;;;;;4.00;1.92;;;;;;;15.07;84.30;100636.41;5011459;28;20109;-60
2023/08/26 04:17:44;;;;;;;3.22;1.70;;;;;;;15.02;84.90;100644.31;5021996;28;20034;-61
2023/08/26 04:20:11;;;;;;;4.60;1.50;;;;;;;14.97;84.27;100642.75;5018210;28;20048;-61
2023/08/26 04:22:37;;;;;;;3.47;1.33;;;;;;;14.91;83.74;100643.78;5013433;28;20034;-60
2023/08/26 04:25:04;;;;;;;3.35;1.35;;;;;;;14.90;84.23;100654.25;5017904;28;20033;-60
2023/08/26 04:27:31;;;;;;;2.33;1.40;;;;;;;14.86;83.46;100648.28;5018826;28;20037;-60
2023/08/26 04:29:56;;;;;;;3.78;1.40;;;;;;;14.83;84.01;100647.50;5012096;28;20039;-60
2023/08/26 04:32:22;;;;;;;3.00;1.35;;;;;;;14.77;84.52;100652.88;5006814;28;20038;-60
2023/08/26 04:34:47;;;;;;;1.88;1.25;;;;;;;14.74;84.63;100650.34;5012350;28;20037;-60
2023/08/26 04:37:12;;;;;;;3.42;1.42;;;;;;;14.68;84.60;100648.78;5007803;28;20041;-60
2023/08/26 04:39:38;;;;;;;3.08;1.27;;;;;;;14.62;83.89;100647.19;5007793;28;20413;-60
2023/08/26 04:42:04;;;;;;;3.17;1.33;;;;;;;14.62;83.85;100643.72;5015333;28;20100;-60
2023/08/26 04:44:29;;;;;;;2.00;1.30;;;;;;;14.58;84.45;100650.75;5013924;28;20036;-60
2023/08/26 04:46:55;;;;;;;2.95;1.20;;;;;;;14.56;84.19;100656.91;5009784;28;20132;-61
2023/08/26 04:49:20;;;;;;;4.00;1.40;;;;;;;14.53;84.90;100667.38;5008038;28;20483;-61
2023/08/26 04:51:51;;;;;;;2.72;1.42;;;;;;;14.51;85.50;100672.59;5010205;28;20034;-60
2023/08/26 04:54:17;;;;;;;3.50;1.33;;;;;;;14.51;84.89;100661.38;5013453;28;20029;-61
2023/08/26 04:56:42;;;;;;;3.20;1.38;;;;;;;14.51;85.26;100670.00;5012190;28;20730;-61
2023/08/26 04:59:07;;;;;;;1.42;1.17;;;;;;;14.53;85.32;100667.38;5011041;28;20049;-61
2023/08/26 05:01:33;;;;;;;2.95;1.30;;;;;;;14.57;84.73;100662.03;5007170;28;20430;-61
2023/08/26 05:03:58;;;;;;;3.00;1.45;;;;;;;14.62;84.43;100665.41;5013995;28;20126;-61
2023/08/26 05:06:24;;;;;;;3.17;1.33;;;;;;;14.66;83.73;100671.38;5008472;28;20033;-61
2023/08/26 05:08:49;;;;;;;3.55;1.30;;;;;;;14.67;83.73;100665.28;5016877;28;20268;-61
2023/08/26 05:11:15;;;;;;;3.50;1.33;;;;;;;14.67;83.21;100670.47;5017382;28;20045;-61
2023/08/26 05:13:40;;;;;;;3.25;1.30;;;;;;;14.71;84.13;100682.50;5015636;28;20038;-61
2023/08/26 05:16:05;;;;;;;2.17;1.20;;;;;;;14.73;83.47;100674.66;5014789;28;20045;-61
2023/08/26 05:18:31;;;;;;;3.05;1.30;;;;;;;14.76;83.88;100677.16;5008778;28;20068;-61
2023/08/26 05:20:56;;;;;;;5.45;1.85;;;;;;;14.77;83.43;100669.34;5012256;28;20030;-61
2023/08/26 05:23:21;;;;;;;5.13;1.38;;;;;;;14.76;83.31;100675.44;5014301;28;20100;-61
2023/08/26 05:25:47;;;;;;;2.85;1.15;;;;;;;14.81;83.31;100672.72;5011376;28;20519;-61
2023/08/26 05:28:13;;;;;;;3.42;1.50;;;;;;;14.81;83.07;100681.34;5012128;28;20080;-61
2023/08/26 05:30:39;;;;;;;3.60;1.52;;;;;;;14.83;83.55;100683.94;5005727;28;20060;-60
2023/08/26 05:33:05;;;;;;;2.35;1.10;;;;;;;14.83;83.45;100682.19;5004406;28;20041;-60
2023/08/26 05:35:30;;;;;;;4.25;1.27;;;;;;;14.83;83.91;100684.78;5010724;28;20089;-61
2023/08/26 05:37:55;;;;;;;6.50;1.60;;;;;;;14.83;83.94;100690.00;5006121;28;20037;-61
2023/08/26 05:40:26;;;;;;;5.18;1.45;;;;;;;14.85;84.13;100689.94;5005774;28;20562;-61
2023/08/26 05:42:56;;;;;;;2.47;1.13;;;;;;;14.87;83.61;100689.00;5005613;28;20094;-61
2023/08/26 05:45:22;;;;;;;2.15;1.20;;;;;;;14.90;83.61;100686.31;5007137;28;20038;-61
2023/08/26 05:47:47;;;;;;;1.55;1.13;;;;;;;14.94;83.25;100676.69;5013611;28;20044;-60
2023/08/26 05:50:12;;;;;;;4.38;1.20;;;;;;;14.99;82.80;100685.25;5008899;28;20041;-62
2023/08/26 05:52:38;;;;;;;8.48;1.80;;;;;;;15.04;83.54;100675.53;5009125;28;20030;-62
2023/08/26 05:55:03;;;;;;;3.10;1.05;;;;;;;15.08;83.99;100677.13;5008244;28;20115;-62
2023/08/26 05:57:29;;;;;;;3.30;1.25;;;;;;;15.11;83.58;100680.50;5004673;28;20394;-62
2023/08/26 05:59:54;;;;;;;6.85;1.65;;;;;;;15.16;83.47;100680.41;5006351;28;20028;-62
2023/08/26 06:02:19;;;;;;;5.38;1.40;;;;;;;15.20;83.19;100682.88;5010438;28;20140;-62
2023/08/26 06:04:45;;;;;;;4.22;1.50;;;;;;;15.27;83.25;100675.72;5008757;28;20073;-62
2023/08/26 06:07:10;;;;;;;4.18;1.45;;;;;;;15.33;82.80;100678.16;5006932;28;20153;-62
2023/08/26 06:09:35;;;;;;;10.55;1.98;;;;;;;15.38;82.84;100691.03;5004196;28;20041;-62
2023/08/26 06:12:01;;;;;;;2.92;1.15;;;;;;;15.41;82.42;100681.38;5011048;28;20033;-62
2023/08/26 06:14:26;;;;;;;1.88;1.08;;;;;;;15.45;83.06;100687.38;5005905;28;20080;-62
2023/08/26 06:16:52;;;;;;;3.78;1.27;;;;;;;15.48;82.99;100688.13;5005505;28;20030;-61
2023/08/26 06:19:17;;;;;;;4.55;1.27;;;;;;;15.54;82.71;100693.16;5012253;28;20061;-62
2023/08/26 06:21:42;;;;;;;3.20;1.27;;;;;;;15.60;82.24;100692.97;5005812;28;20099;-62
2023/08/26 06:24:08;;;;;;;5.70;1.70;;;;;;;15.66;81.95;100698.03;5002077;28;20712;-62
2023/08/26 06:26:33;;;;;;;7.10;1.52;;;;;;;15.74;81.79;100690.84;5000250;28;20136;-61
2023/08/26 06:28:59;;;;;;;2.47;1.40;;;;;;;15.81;82.20;100701.94;5016550;28;20038;-62
2023/08/26 06:31:24;;;;;;;2.22;1.25;;;;;;;15.89;81.80;100693.84;5008540;28;20111;-62
2023/08/26 06:33:49;;;;;;;4.85;1.45;;;;;;;15.97;81.88;100684.91;5006183;28;20049;-61
2023/08/26 06:36:15;;;;;;;14.02;1.88;;;;;;;16.08;79.59;100674.13;5000478;28;20034;-61
2023/08/26 06:38:40;;;;;;;5.93;1.25;;;;;;;16.18;78.47;100660.75;5000960;28;20038;-61
2023/08/26 06:41:05;;;;;;;3.50;1.38;;;;;;;16.29;78.19;100669.06;5000450;28;20069;-62
2023/08/26 06:43:31;;;;;;;3.88;1.30;;;;;;;16.40;77.55;100667.84;4993951;28;20074;-61
2023/08/26 06:45:57;;;;;;;3.78;1.33;;;;;;;16.46;75.34;100628.50;5002650;28;20557;-62
2023/08/26 06:48:23;;;;;;;4.75;1.23;;;;;;;16.54;76.32;100635.16;5006192;28;20884;-62
2023/08/26 06:50:49;;;;;;;3.60;0.98;;;;;;;16.61;76.54;100647.09;5010793;28;20033;-61
2023/08/26 06:53:20;;;;;;;1.83;0.90;;;;;;;16.68;76.52;100655.59;5000739;28;20125;-62
2023/08/26 06:55:47;;;;;;;8.13;1.23;;;;;;;16.74;76.71;100650.16;5006857;28;20045;-61
2023/08/26 06:58:12;;;;;;;3.33;1.20;;;;;;;16.79;76.25;100651.72;5008189;28;20037;-60
2023/08/26 07:00:37;;;;;;;3.08;1.35;;;;;;;16.89;75.84;100648.78;5007562;28;20749;-59
2023/08/26 07:03:03;;;;;;;2.67;1.10;;;;;;;16.96;75.03;100640.66;5014638;28;20537;-61
2023/08/26 07:05:28;;;;;;;3.75;1.27;;;;;;;16.99;75.65;100656.22;5001661;28;20069;-62
2023/08/26 07:07:54;;;;;;;4.15;0.98;;;;;;;17.01;75.80;100646.56;5008190;28;20229;-61
2023/08/26 07:10:19;;;;;;;2.63;1.15;;;;;;;17.12;74.73;100640.94;5010717;28;20171;-61
2023/08/26 07:12:45;;;;;;;1.08;0.70;;;;;;;17.20;73.86;100631.06;5009923;28;20048;-61
2023/08/26 07:15:10;;;;;;;3.88;1.17;;;;;;;17.27;73.56;100627.31;4997837;28;20041;-61
2023/08/26 07:17:35;;;;;;;2.03;1.00;;;;;;;17.32;73.71;100638.44;5004765;28;20038;-61
2023/08/26 07:20:01;;;;;;;3.03;1.20;;;;;;;17.38;72.79;100623.38;5010885;28;20045;-62
2023/08/26 07:22:26;;;;;;;2.35;0.88;;;;;;;17.49;72.50;100614.25;5012900;28;20088;-61
2023/08/26 07:24:52;;;;;;;4.07;1.20;;;;;;;17.53;71.95;100603.66;5007953;28;20163;-62
2023/08/26 07:27:18;;;;;;;2.35;0.85;;;;;;;17.62;71.24;100598.06;5010094;28;20075;-61
2023/08/26 07:29:43;;;;;;;3.00;0.90;;;;;;;17.70;71.04;100598.59;5022422;28;20041;-60
2023/08/26 07:32:09;;;;;;;3.95;1.20;;;;;;;17.74;68.37;100555.75;5011085;28;20037;-61
2023/08/26 07:34:34;;;;;;;3.97;1.13;;;;;;;17.81;68.86;100572.84;5021178;28;20127;-62
2023/08/26 07:36:59;;;;;;;2.35;0.90;;;;;;;17.87;70.06;100590.94;5018818;28;20406;-61
2023/08/26 07:39:25;;;;;;;4.18;1.08;;;;;;;17.88;70.17;100592.66;5007781;28;20116;-61
2023/08/26 07:41:51;;;;;;;3.45;1.10;;;;;;;17.96;70.75;100606.25;5009206;28;20060;-61
2023/08/26 07:44:16;;;;;;;4.47;1.67;;;;;;;18.00;70.29;100596.53;5014719;28;20845;-61
2023/08/26 07:46:41;;;;;;;2.58;1.00;;;;;;;18.07;70.10;100600.59;5012403;28;20040;-61
2023/08/26 07:49:07;;;;;;;3.55;1.05;;;;;;;18.08;69.03;100586.59;5016055;28;20564;-61
2023/08/26 07:51:32;;;;;;;2.72;0.90;;;;;;;18.16;69.06;100584.53;5017896;28;20463;-61
2023/08/26 07:53:57;;;;;;;2.03;1.17;;;;;;;18.20;69.24;100578.22;5020751;28;20041;-61
2023/08/26 07:56:23;;;;;;;2.28;0.90;;;;;;;18.33;67.47;100563.72;5017593;28;20048;-61
2023/08/26 07:58:49;;;;;;;2.83;1.15;;;;;;;18.42;67.89;100571.16;5021259;28;20037;-61
2023/08/26 08:01:14;;;;;;;2.45;0.88;;;;;;;18.47;66.70;100553.47;5019308;28;20044;-58
2023/08/26 08:03:39;;;;;;;2.72;1.08;;;;;;;18.56;66.71;100557.47;5022371;28;20046;-58
2023/08/26 08:06:05;;;;;;;1.98;0.73;;;;;;;18.62;65.51;100554.56;5012871;28;20090;-59
2023/08/26 08:08:30;;;;;;;2.80;0.90;;;;;;;18.72;65.99;100561.09;5029786;28;20514;-58
2023/08/26 08:10:55;;;;;;;4.55;0.98;;;;;;;18.80;64.95;100553.75;5018906;28;20124;-59
2023/08/26 08:13:21;;;;;;;6.00;0.85;;;;;;;18.87;65.11;100563.06;5007921;28;20605;-59
2023/08/26 08:15:46;;;;;;;2.83;0.77;;;;;;;18.92;64.92;100554.97;5012714;28;20049;-59
2023/08/26 08:18:11;;;;;;;2.40;0.80;;;;;;;18.94;64.46;100553.13;5018057;28;20043;-58
2023/08/26 08:20:37;;;;;;;4.28;1.00;;;;;;;18.99;64.42;100551.19;5026928;28;20028;-59
2023/08/26 08:23:03;;;;;;;4.68;1.50;;;;;;;19.05;63.11;100535.19;5007694;28;20049;-59
2023/08/26 08:25:29;;;;;;;4.03;1.10;;;;;;;19.07;63.55;100541.19;5007713;28;20149;-59
2023/08/26 08:27:54;;;;;;;4.13;1.20;;;;;;;19.10;63.63;100548.03;5022765;28;20041;-61
2023/08/26 08:30:19;;;;;;;4.70;1.30;;;;;;;19.12;62.88;100538.38;5012678;28;20033;-59
2023/08/26 08:32:45;;;;;;;3.45;0.90;;;;;;;19.17;62.13;100525.88;5006658;28;20107;-63
2023/08/26 08:35:10;;;;;;;5.72;1.13;;;;;;;19.18;61.65;100514.47;5003479;28;20080;-59
2023/08/26 08:37:36;;;;;;;2.33;0.80;;;;;;;19.25;62.59;100536.84;5014630;28;20104;-58
2023/08/26 08:40:01;;;;;;;2.53;0.93;;;;;;;19.32;61.64;100507.66;5006767;28;20040;-59
2023/08/26 08:42:31;;;;;;;3.63;1.20;;;;;;;19.44;60.51;100493.13;5012024;28;20057;-59
2023/08/26 08:44:57;;;;;;;1.77;0.90;;;;;;;19.50;59.81;100479.69;5008152;28;20151;-59
2023/08/26 08:47:23;;;;;;;3.10;1.02;;;;;;;19.57;60.71;100495.03;5004615;28;20037;-59
2023/08/26 08:49:49;;;;;;;1.83;0.63;;;;;;;19.59;61.01;100492.34;5009485;28;20048;-60
2023/08/26 08:52:15;;;;;;;4.40;1.20;;;;;;;19.63;60.87;100502.59;5007173;28;20558;-59
2023/08/26 08:54:44;;;;;;;2.17;1.00;;;;;;;19.69;59.58;100477.84;5003824;28;20549;-59
2023/08/26 08:57:13;;;;;;;4.43;0.70;;;;;;;19.79;59.53;100483.53;5012387;28;20071;-58
2023/08/26 08:59:39;;;;;;;1.23;0.70;;;;;;;19.76;59.17;100484.50;5006901;28;20377;-59
2023/08/26 09:02:05;;;;;;;1.35;0.68;;;;;;;19.80;59.83;100486.03;5013446;28;20048;-59
2023/08/26 09:04:31;;;;;;;4.25;0.80;;;;;;;19.87;59.76;100497.94;5007292;28;20801;-59
2023/08/26 09:06:57;;;;;;;3.78;0.70;;;;;;;19.94;59.58;100483.59;5005486;28;20309;-59
2023/08/26 09:09:22;;;;;;;1.50;0.80;;;;;;;20.04;58.69;100468.19;5008232;28;20504;-59
2023/08/26 09:11:49;;;;;;;2.30;1.20;;;;;;;20.10;58.03;100463.50;5003928;28;20034;-59
2023/08/26 09:14:14;;;;;;;1.73;0.88;;;;;;;20.18;57.09;100444.72;5010317;28;20402;-59
2023/08/26 09:16:41;;;;;;;2.30;1.00;;;;;;;20.25;57.24;100447.84;5008861;28;20060;-59
2023/08/26 09:19:09;;;;;;;3.42;0.80;;;;;;;20.20;55.56;100415.78;5005340;28;21655;-59
2023/08/26 09:21:42;;;;;;;2.45;1.00;;;;;;;20.23;55.28;100426.97;5002849;28;20033;-58
2023/08/26 09:24:16;;;;;;;3.20;0.90;;;;;;;20.27;57.29;100451.28;5004702;28;20026;-59
2023/08/26 09:26:43;;;;;;;6.68;1.17;;;;;;;20.22;58.32;100476.88;5003763;28;20095;-59
2023/08/26 09:29:16;;;;;;;5.57;1.40;;;;;;;20.21;58.74;100496.22;5013623;28;20033;-59
2023/08/26 09:31:49;;;;;;;2.83;0.98;;;;;;;20.22;58.44;100488.25;5015988;28;20160;-59
2023/08/26 09:34:34;;;;;;;2.70;0.80;;;;;;;20.27;56.96;100457.38;5004980;28;20399;-59
2023/08/26 09:37:00;;;;;;;3.10;1.17;;;;;;;20.35;56.18;100442.06;5011974;28;20049;-59
2023/08/26 09:39:26;;;;;;;3.63;1.20;;;;;;;20.45;56.08;100439.78;5013583;28;20132;-59
2023/08/26 09:41:54;;;;;;;2.25;0.90;;;;;;;20.53;56.51;100453.34;5007301;28;20761;-59
2023/08/26 09:44:23;;;;;;;1.98;0.80;;;;;;;20.65;55.73;100442.16;5012262;28;20056;-60
2023/08/26 09:46:49;;;;;;;2.67;0.88;;;;;;;20.81;55.26;100437.78;5003363;28;20060;-60
2023/08/26 09:49:16;;;;;;;1.40;0.40;;;;;;;20.84;53.04;100411.34;5008246;28;20075;-61
2023/08/26 09:51:47;;;;;;;1.73;0.50;;;;;;;20.98;52.12;100390.41;5013154;28;20046;-60
2023/08/26 09:54:19;;;;;;;2.97;0.80;;;;;;;21.06;51.16;100382.94;5003403;28;20033;-60
2023/08/26 09:56:46;;;;;;;1.33;0.70;;;;;;;21.15;50.79;100382.41;5009151;28;20099;-60
2023/08/26 09:59:12;;;;;;;2.55;0.60;;;;;;;21.16;50.83;100389.38;5009466;28;20059;-60
2023/08/26 10:01:41;;;;;;;1.88;1.00;;;;;;;21.07;50.84;100394.28;5009321;28;20164;-60
2023/08/26 10:04:11;;;;;;;2.33;0.90;;;;;;;21.25;49.57;100378.28;5007006;28;20068;-61
2023/08/26 10:06:44;;;;;;;1.40;0.50;;;;;;;21.45;50.35;100398.16;5008363;28;20243;-61
2023/08/26 10:09:31;;;;;;;5.65;1.13;;;;;;;21.65;50.02;100397.00;5015403;28;20104;-61
2023/08/26 10:12:00;;;;;;;1.15;0.57;;;;;;;21.80;49.17;100369.78;5009365;28;20041;-61
2023/08/26 10:14:28;;;;;;;1.83;0.70;;;;;;;21.90;49.03;100376.19;5009566;28;20434;-61
2023/08/26 10:16:56;;;;;;;2.83;1.10;;;;;;;22.03;48.86;100376.25;5005718;28;20437;-60
2023/08/26 10:19:23;;;;;;;3.15;0.60;;;;;;;22.13;48.48;100364.22;5009680;28;20046;-60
2023/08/26 10:21:49;;;;;;;1.98;0.90;;;;;;;22.03;49.23;100390.28;5010966;28;20505;-59
2023/08/26 10:24:15;;;;;;;2.08;0.88;;;;;;;21.93;48.79;100375.16;5003600;28;20156;-61
2023/08/26 10:26:40;;;;;;;1.25;0.70;;;;;;;21.76;49.42;100391.94;4999767;28;20807;-61
2023/08/26 10:29:07;;;;;;;3.15;0.98;;;;;;;21.72;48.91;100372.03;5005316;28;20048;-60
2023/08/26 10:31:36;;;;;;;1.05;0.50;;;;;;;21.98;49.28;100397.59;5003469;28;20046;-61
2023/08/26 10:34:06;;;;;;;1.13;0.65;;;;;;;22.28;48.77;100384.34;5011628;28;20044;-60
2023/08/26 10:36:39;;;;;;;1.45;0.68;;;;;;;22.52;47.57;100353.84;5020019;28;20094;-60
2023/08/26 10:39:16;;;;;;;0.80;0.50;;;;;;;22.74;47.63;100356.78;5005428;28;20494;-61
2023/08/26 10:42:18;;;;;;;1.58;0.70;;;;;;;22.90;47.74;100367.19;5005273;28;20046;-60
2023/08/26 10:44:53;;;;;;;1.52;0.80;;;;;;;22.96;46.97;100350.13;5010846;28;20694;-60
2023/08/26 10:47:35;;;;;;;1.77;0.70;;;;;;;22.80;47.33;100361.66;5003475;28;20049;-61
2023/08/26 10:50:22;;;;;;;1.20;0.63;;;;;;;22.77;47.43;100368.91;5005688;28;20152;-61
2023/08/26 10:53:14;;;;;;;2.28;0.50;;;;;;;22.99;47.31;100360.47;5003443;28;20391;-60
2023/08/26 10:55:40;;;;;;;1.77;0.68;;;;;;;22.93;46.80;100353.81;5001856;28;20073;-61
2023/08/26 10:58:19;;;;;;;2.30;0.47;;;;;;;23.07;47.17;100364.28;5010047;28;20046;-61
2023/08/26 11:00:49;;;;;;;2.50;0.80;;;;;;;23.28;46.65;100346.22;5008381;28;20061;-61
2023/08/26 11:03:18;;;;;;;1.02;0.60;;;;;;;23.45;47.52;100369.69;5010358;28;20025;-61
2023/08/26 11:05:45;;;;;;;1.50;0.73;;;;;;;23.46;47.87;100366.06;5004733;28;22086;-61
2023/08/26 11:08:11;;;;;;;0.90;0.70;;;;;;;23.51;47.10;100364.00;5005331;28;20030;-61
2023/08/26 11:10:39;;;;;;;1.55;0.63;;;;;;;23.39;46.24;100335.81;5006376;28;20034;-61
2023/08/26 11:13:09;;;;;;;2.53;0.63;;;;;;;23.70;46.67;100347.72;4997979;28;20124;-62
2023/08/26 11:15:39;;;;;;;1.00;0.60;;;;;;;23.81;44.72;100310.84;5002596;28;20058;-61
2023/08/26 11:18:05;;;;;;;2.38;0.73;;;;;;;23.93;46.16;100336.41;4988136;28;20755;-61
2023/08/26 11:20:31;;;;;;;2.22;1.02;;;;;;;23.97;45.41;100330.00;5005012;28;20045;-61
2023/08/26 11:22:57;;;;;;;1.17;0.63;;;;;;;23.83;45.83;100323.03;5004540;28;20056;-61